Bunkie, Louisiana
Current Conditions -  °F | °C
As of 2:35 PM on Tuesday 25 Nov 2014 (Local Time) from KOPL Reporting Station
Clear Clear  
Wind Chill: 51°   Ceiling: Unl
Heat Index: 51°   Visibility: 10mi
Dew Point: 35°   Wind: 9mph
Humidity: 53%   Direction: 340°NNW
Pressure: 30.2"   Gusts: NA
Location:  30.95°N, 92.18°W
Report Text: KOPL 252035Z AUTO 34008KT 10SM CLR 11/01 A3020 RMK AO2 T01070014
Loading
Personal Weather Stations






























Interactive Weather Map New forecast layout! Learn more

10-Day Weather Forecast

Advertisements
Track Severe Weather on mobile